Terminal Aerodrome Forecast
Issued by NWS Des Moines, IA

Home | Current Version | Previous Version | Text Only | Print | Product List | Glossary On
Versions: 1 2 3 4 5 6 7 8 9 10 11 12 13 14 15 16 17 18 19 20 21 22 23 24 25 26 27 28
000
FTUS43 KDMX 060531
TAFALO
TAF
KALO 060531Z 0606/0706 15015KT 5SM BR BKN005 BKN030
     FM060700 21009KT 3SM -RASN BKN002 OVC006
     FM061200 22008KT 5SM BR BKN014 OVC020
     FM061300 28013G22KT P6SM SCT025 OVC035
     FM061700 27016G30KT P6SM SCT035 BKN150
     FM062300 27014KT P6SM SCT150=

USA.gov is the U.S. government's official web portal to all federal, state and local government web resources and services.